This is the latest recevied weather packets stored in our database for station/object KO4ILY. If no packets are shown the sender has not sent any weather packets the latest 10 day(s).
| Time | Temp. | Humidity | Pressure | Rain* | Wind** | Luminosity | Snow |
|---|---|---|---|---|---|---|---|
| 1777715116 | 12.22° C | 58% | 1014.5 hPa | 0 mm | - | 0 W/m² | - |
| 1777712717 | 12.22° C | 57% | 1014 hPa | 0 mm | - | 0 W/m² | - |
| 1777708518 | 12.22° C | 55% | 1014.3 hPa | 0 mm | - | 0 W/m² | - |
| 1777707316 | 12.78° C | 54% | 1014.8 hPa | 0 mm | - | 0 W/m² | - |
| 1777704916 | 12.78° C | 53% | 1015.1 hPa | 0 mm | - | 0 W/m² | - |
| 1777700718 | 13.33° C | 52% | 1015.2 hPa | 0 mm | - | 0 W/m² | - |
| 1777696518 | 14.44° C | 52% | 1014.8 hPa | 0 mm | - | 0 W/m² | - |
| 1777695916 | 14.44° C | 53% | 1014.7 hPa | 0 mm | - | 0 W/m² | - |
| 1777691137 | 15.56° C | 56% | 1014.6 hPa | 0 mm | - | 0 W/m² | - |
| 1777689918 | 16.11° C | 57% | 1014.5 hPa | 0 mm | - | 0 W/m² | - |
| 1777684516 | 16.67° C | 55% | 1013.8 hPa | 0 mm | - | 0 W/m² | - |
| 1777681517 | 17.22° C | 55% | 1012.8 hPa | 0 mm | - | 2 W/m² | - |
| 1777678517 | 18.33° C | 54% | 1012.6 hPa | 0 mm | - | 29 W/m² | - |
| 1777671317 | 21.11° C | 48% | 1012.5 hPa | 0 mm | - | 498 W/m² | - |
| 1777670117 | 20.56° C | 49% | 1013 hPa | 0 mm | - | 402 W/m² | - |
| 1777669517 | 20.56° C | 51% | 1013.1 hPa | 0 mm | - | 315 W/m² | - |
| 1777667118 | 20.56° C | 48% | 1013.6 hPa | 0 mm | - | 398 W/m² | - |
| 1777664736 | 20° C | 48% | 1014.2 hPa | 0 mm | - | 391 W/m² | - |
| 1777661137 | 19.44° C | 50% | 1014.2 hPa | 0 mm | - | 252 W/m² | - |
| 1777652736 | 18.33° C | 53% | 1014.9 hPa | 0 mm | - | 291 W/m² | - |
| 1777652116 | 17.78° C | 53% | 1015.1 hPa | 0 mm | - | 271 W/m² | - |
| 1777643718 | 14.44° C | 64% | 1015.2 hPa | 0 mm | - | 186 W/m² | - |
| 1777638317 | 11.11° C | 69% | 1015.1 hPa | 0 mm | - | 55 W/m² | - |
| 1777635317 | 10.56° C | 70% | 1014.2 hPa | 0 mm | - | 28 W/m² | - |
| 1777632918 | 10° C | 80% | 1014.1 hPa | 0 mm | - | 2 W/m² | - |
* Rain latest hour (hover to see other rain measurements)
** Current wind speed in m/s (hover to see current wind gust speed)